createdAt,value
2023-03-01T00:01:39.755Z,23.08
2023-03-01T00:04:06.514Z,22.10
2023-03-01T00:06:33.655Z,21.30
2023-03-01T00:09:00.663Z,24.40
2023-03-01T00:11:30.225Z,24.23
2023-03-01T00:13:59.431Z,25.33
2023-03-01T00:16:32.545Z,22.42
2023-03-01T00:18:59.686Z,23.60
2023-03-01T00:21:27.295Z,21.15
2023-03-01T00:23:54.953Z,23.60
2023-03-01T00:26:23.935Z,34.22
2023-03-01T00:28:51.702Z,34.88
2023-03-01T00:31:22.040Z,37.72
2023-03-01T00:33:48.912Z,30.70
2023-03-01T00:36:17.072Z,31.58
2023-03-01T00:38:46.428Z,24.90
2023-03-01T00:41:16.234Z,33.70
2023-03-01T00:43:43.540Z,30.35
2023-03-01T00:46:20.088Z,30.27
2023-03-01T00:48:47.147Z,31.55
2023-03-01T00:51:28.651Z,29.73
2023-03-01T00:53:57.950Z,26.55
2023-03-01T00:56:25.743Z,27.65
2023-03-01T00:58:52.631Z,25.17
2023-03-01T01:01:22.830Z,24.98
2023-03-01T01:04:00.896Z,28.38
2023-03-01T01:06:34.693Z,25.83
2023-03-01T01:09:02.129Z,24.08
2023-03-01T01:11:30.612Z,25.13
2023-03-01T01:13:59.055Z,23.63
2023-03-01T01:16:27.954Z,27.85
2023-03-01T01:18:55.962Z,26.45
2023-03-01T01:21:26.411Z,25.17
2023-03-01T01:23:53.258Z,30.30
2023-03-01T01:26:21.674Z,24.55
2023-03-01T01:28:48.512Z,25.33
2023-03-01T01:31:16.072Z,26.98
2023-03-01T01:33:43.204Z,26.60
2023-03-01T01:36:10.565Z,26.02
2023-03-01T01:38:39.360Z,27.20
2023-03-01T01:41:06.970Z,28.42
2023-03-01T01:43:39.931Z,27.30
2023-03-01T01:46:26.852Z,31.67
2023-03-01T01:49:19.674Z,28.08
2023-03-01T01:51:49.933Z,31.50
2023-03-01T01:54:28.734Z,26.38
2023-03-01T01:57:13.676Z,26.50
2023-03-01T01:59:44.074Z,30.90
2023-03-01T02:02:11.099Z,32.25
2023-03-01T02:04:37.908Z,32.83
2023-03-01T02:07:17.216Z,25.27
2023-03-01T02:09:48.259Z,31.63
2023-03-01T02:12:18.190Z,27.63
2023-03-01T02:14:45.159Z,29.85
2023-03-01T02:17:15.712Z,28.70
2023-03-01T02:19:54.660Z,23.60
2023-03-01T02:22:33.566Z,31.98
2023-03-01T02:25:06.330Z,27.67
2023-03-01T02:27:57.336Z,25.80
2023-03-01T02:30:25.447Z,30.48
2023-03-01T02:32:54.656Z,28.92
2023-03-01T02:35:22.307Z,24.60
2023-03-01T02:37:49.561Z,25.27
2023-03-01T02:40:19.480Z,24.15
2023-03-01T02:42:56.813Z,26.33
2023-03-01T02:45:24.157Z,20.35
2023-03-01T02:47:51.559Z,22.02
2023-03-01T02:50:30.228Z,24.15
2023-03-01T02:53:11.197Z,24.33
2023-03-01T02:55:38.164Z,34.20
2023-03-01T02:58:05.532Z,24.58
2023-03-01T03:00:52.182Z,24.40
2023-03-01T03:03:21.626Z,24.48
2023-03-01T03:05:49.375Z,29.35
2023-03-01T03:08:25.281Z,28.17
2023-03-01T03:10:52.533Z,27.27
2023-03-01T03:13:20.192Z,26.60
2023-03-01T03:15:47.075Z,25.00
2023-03-01T03:18:16.773Z,27.08
2023-03-01T03:20:44.930Z,27.58
2023-03-01T03:23:12.462Z,24.67
2023-03-01T03:25:39.494Z,30.60
2023-03-01T03:28:10.853Z,25.88
2023-03-01T03:30:42.602Z,28.95
2023-03-01T03:33:14.015Z,22.98
2023-03-01T03:35:44.404Z,28.13
2023-03-01T03:38:16.846Z,26.40
2023-03-01T03:40:49.723Z,24.48
2023-03-01T03:43:19.887Z,27.40
2023-03-01T03:45:52.304Z,26.08
2023-03-01T03:48:20.280Z,22.08
2023-03-01T03:50:55.885Z,26.88
2023-03-01T03:53:24.437Z,22.63
2023-03-01T03:55:52.825Z,28.38
2023-03-01T03:58:22.260Z,24.58
2023-03-01T04:00:51.615Z,26.25
2023-03-01T04:03:20.925Z,24.95
2023-03-01T04:05:48.419Z,24.70
2023-03-01T04:08:15.506Z,31.70
2023-03-01T04:10:45.564Z,26.52
2023-03-01T04:13:15.042Z,29.83
2023-03-01T04:15:44.090Z,30.40
2023-03-01T04:18:14.307Z,26.60
2023-03-01T04:20:41.345Z,25.38
2023-03-01T04:23:14.496Z,30.67
2023-03-01T04:25:50.543Z,28.70
2023-03-01T04:28:17.814Z,26.13
2023-03-01T04:30:44.601Z,28.23
2023-03-01T04:33:12.306Z,28.33
2023-03-01T04:35:40.121Z,28.40
2023-03-01T04:38:07.626Z,26.13
2023-03-01T04:40:34.487Z,26.65
2023-03-01T04:43:01.573Z,27.60
2023-03-01T04:45:28.935Z,29.45
2023-03-01T04:47:55.871Z,25.55
2023-03-01T04:50:24.503Z,27.88
2023-03-01T04:52:51.483Z,24.77
2023-03-01T04:55:18.662Z,28.58
2023-03-01T04:57:45.843Z,27.25
2023-03-01T05:00:21.548Z,30.33
2023-03-01T05:02:56.783Z,27.85
2023-03-01T05:05:33.539Z,26.25
2023-03-01T05:08:03.401Z,29.80
2023-03-01T05:10:31.869Z,25.77
2023-03-01T05:13:00.097Z,25.15
2023-03-01T05:15:28.879Z,26.58
2023-03-01T05:17:59.712Z,32.65
2023-03-01T05:20:29.631Z,27.52
2023-03-01T05:22:59.748Z,29.80
2023-03-01T05:25:27.206Z,29.08
2023-03-01T05:27:54.130Z,32.67
2023-03-01T05:30:21.059Z,36.03
2023-03-01T05:32:50.129Z,31.23
2023-03-01T05:35:19.050Z,32.25
2023-03-01T05:37:49.116Z,32.67
2023-03-01T05:40:19.098Z,32.50
2023-03-01T05:42:47.663Z,34.95
2023-03-01T05:45:16.082Z,29.80
2023-03-01T05:47:47.009Z,29.45
2023-03-01T05:50:26.362Z,34.67
2023-03-01T05:53:00.096Z,33.03
2023-03-01T05:55:29.120Z,31.52
2023-03-01T05:57:56.597Z,31.55
2023-03-01T06:00:23.629Z,32.38
2023-03-01T06:02:51.084Z,31.55
2023-03-01T06:05:17.954Z,31.90
2023-03-01T06:07:45.093Z,30.98
2023-03-01T06:10:13.927Z,43.90
2023-03-01T06:12:43.095Z,32.00
2023-03-01T06:15:12.796Z,32.45
2023-03-01T06:17:41.570Z,33.08
2023-03-01T06:20:18.212Z,36.13
2023-03-01T06:22:45.508Z,31.17
2023-03-01T06:25:13.645Z,35.78
2023-03-01T06:27:40.955Z,31.58
2023-03-01T06:30:08.983Z,27.98
2023-03-01T06:32:35.797Z,34.63
2023-03-01T06:35:02.610Z,29.17
2023-03-01T06:37:29.485Z,29.40
2023-03-01T06:39:56.321Z,29.90
2023-03-01T06:42:23.160Z,30.45
2023-03-01T06:44:49.907Z,34.85
2023-03-01T06:47:16.760Z,30.05
2023-03-01T06:49:43.545Z,29.05
2023-03-01T06:52:10.275Z,37.38
2023-03-01T06:54:37.062Z,32.35
2023-03-01T06:57:03.933Z,34.00
2023-03-01T06:59:30.789Z,31.90
2023-03-01T07:01:57.705Z,33.92
2023-03-01T07:04:24.470Z,34.42
2023-03-01T07:06:56.070Z,35.20
2023-03-01T07:09:24.741Z,35.72
2023-03-01T07:11:51.897Z,33.88
2023-03-01T07:14:18.748Z,34.90
2023-03-01T07:16:45.543Z,32.70
2023-03-01T07:19:12.380Z,38.33
2023-03-01T07:21:41.901Z,35.17
2023-03-01T07:24:09.579Z,43.45
2023-03-01T07:26:36.694Z,35.08
2023-03-01T07:29:05.350Z,38.30
2023-03-01T07:31:33.000Z,35.38
2023-03-01T07:33:59.899Z,36.38
2023-03-01T07:36:26.842Z,40.58
2023-03-01T07:38:53.686Z,37.25
2023-03-01T07:41:20.446Z,36.50
2023-03-01T07:43:47.244Z,32.47
2023-03-01T07:46:14.079Z,38.53
2023-03-01T07:48:41.065Z,35.20
2023-03-01T07:51:08.949Z,35.28
2023-03-01T07:53:36.265Z,30.40
2023-03-01T07:56:05.933Z,36.85
2023-03-01T07:58:34.789Z,38.05
2023-03-01T08:01:09.260Z,31.60
2023-03-01T08:03:37.169Z,38.45
2023-03-01T08:06:06.283Z,34.05
2023-03-01T08:08:33.502Z,34.83
2023-03-01T08:11:02.281Z,32.88
2023-03-01T08:13:29.765Z,31.88
2023-03-01T08:16:05.814Z,36.55
2023-03-01T08:18:32.757Z,34.10
2023-03-01T08:21:10.934Z,37.67
2023-03-01T08:23:37.765Z,33.67
2023-03-01T08:26:09.456Z,35.88
2023-03-01T08:28:36.866Z,34.13
2023-03-01T08:31:04.037Z,34.75
2023-03-01T08:33:30.796Z,34.88
2023-03-01T08:36:07.454Z,35.65
2023-03-01T08:38:35.422Z,38.45
2023-03-01T08:41:03.670Z,40.60
2023-03-01T08:43:31.168Z,32.80
2023-03-01T08:45:58.154Z,34.25
2023-03-01T08:48:25.077Z,32.58
2023-03-01T08:50:52.436Z,43.10
2023-03-01T08:53:19.242Z,36.85
2023-03-01T08:55:46.086Z,32.60
2023-03-01T08:58:13.003Z,32.85
2023-03-01T09:00:39.879Z,33.83
2023-03-01T09:03:06.739Z,31.60
2023-03-01T09:05:35.184Z,33.25
2023-03-01T09:08:02.085Z,31.58
2023-03-01T09:10:28.987Z,33.83
2023-03-01T09:12:56.174Z,33.38
2023-03-01T09:15:23.088Z,28.70
2023-03-01T09:17:49.857Z,32.00
2023-03-01T09:20:17.099Z,42.35
2023-03-01T09:22:44.959Z,28.58
2023-03-01T09:25:11.803Z,33.55
2023-03-01T09:27:38.675Z,32.58
2023-03-01T09:30:06.013Z,30.48
2023-03-01T09:32:32.977Z,34.95
2023-03-01T09:35:05.581Z,32.50
2023-03-01T09:37:34.442Z,31.02
2023-03-01T09:40:01.364Z,33.53
2023-03-01T09:42:32.214Z,27.83
2023-03-01T09:45:21.022Z,29.15
2023-03-01T09:47:49.637Z,28.15
2023-03-01T09:50:20.344Z,29.08
2023-03-01T09:53:10.936Z,27.92
2023-03-01T09:55:43.932Z,28.05
2023-03-01T09:58:32.555Z,32.25
2023-03-01T10:01:13.370Z,32.38
2023-03-01T10:03:53.423Z,28.27
2023-03-01T10:06:34.329Z,27.17
2023-03-01T10:09:30.713Z,24.27
2023-03-01T10:11:57.872Z,26.35
2023-03-01T10:14:36.821Z,23.58
2023-03-01T10:17:24.340Z,23.75
2023-03-01T10:19:51.125Z,24.92
2023-03-01T10:22:22.523Z,26.55
2023-03-01T10:24:50.700Z,25.38
2023-03-01T10:27:23.811Z,28.25
2023-03-01T10:30:14.609Z,22.98
2023-03-01T10:32:41.521Z,26.02
2023-03-01T10:35:28.150Z,25.83
2023-03-01T10:37:59.336Z,23.33
2023-03-01T10:40:26.165Z,25.75
2023-03-01T10:42:53.270Z,26.55
2023-03-01T10:45:34.729Z,21.17
2023-03-01T10:48:25.453Z,26.15
2023-03-01T10:51:07.430Z,23.75
2023-03-01T10:53:50.212Z,23.45
2023-03-01T10:56:17.218Z,35.15
2023-03-01T10:59:00.729Z,23.77
2023-03-01T11:01:30.808Z,23.90
2023-03-01T11:04:12.555Z,23.23
2023-03-01T11:06:41.654Z,29.17
2023-03-01T11:09:23.942Z,24.25
2023-03-01T11:11:59.023Z,20.93
2023-03-01T11:14:34.215Z,22.17
2023-03-01T11:17:03.388Z,25.33
2023-03-01T11:19:30.490Z,21.55
2023-03-01T11:22:20.635Z,20.73
2023-03-01T11:25:08.952Z,20.67
2023-03-01T11:27:41.996Z,18.25
2023-03-01T11:30:25.107Z,20.95
2023-03-01T11:35:44.339Z,20.58
2023-03-01T11:38:24.459Z,22.00
2023-03-01T11:41:12.391Z,18.15
2023-03-01T11:43:59.941Z,19.10
2023-03-01T11:46:33.103Z,18.38
2023-03-01T11:49:08.901Z,20.85
2023-03-01T11:51:47.768Z,19.02
2023-03-01T11:54:29.936Z,17.27
2023-03-01T11:57:18.840Z,14.70
2023-03-01T12:00:00.672Z,17.42
2023-03-01T12:02:48.634Z,17.25
2023-03-01T12:05:33.869Z,19.83
2023-03-01T12:08:09.161Z,19.45
2023-03-01T12:10:57.943Z,19.83
2023-03-01T12:13:57.774Z,19.38
2023-03-01T12:16:39.779Z,20.17
2023-03-01T12:19:22.153Z,16.63
2023-03-01T12:22:26.734Z,18.50
2023-03-01T12:25:30.918Z,19.73
2023-03-01T12:28:23.774Z,15.93
2023-03-01T12:31:31.262Z,19.15
2023-03-01T12:34:28.754Z,17.35
2023-03-01T12:37:01.706Z,20.45
2023-03-01T12:42:32.635Z,23.00
2023-03-01T12:45:21.729Z,20.65
2023-03-01T12:48:03.313Z,21.63
2023-03-01T12:50:50.228Z,16.70
2023-03-01T12:53:30.641Z,19.50
2023-03-01T12:56:10.945Z,17.42
2023-03-01T12:59:05.361Z,20.75
2023-03-01T13:01:50.462Z,16.33
2023-03-01T13:05:00.272Z,15.13
2023-03-01T13:07:51.836Z,16.95
2023-03-01T13:10:24.662Z,14.15
2023-03-01T13:13:04.296Z,16.33
2023-03-01T13:15:34.047Z,14.05
2023-03-01T13:18:03.794Z,21.08
2023-03-01T13:20:30.816Z,18.17
2023-03-01T13:23:09.682Z,17.90
2023-03-01T13:25:56.586Z,17.08
2023-03-01T13:28:51.082Z,14.45
2023-03-01T13:31:21.204Z,17.50
2023-03-01T13:33:50.102Z,14.60
2023-03-01T13:36:30.055Z,14.45
2023-03-01T13:38:59.716Z,17.02
2023-03-01T13:41:44.901Z,15.55
2023-03-01T13:44:27.790Z,14.68
2023-03-01T13:47:04.935Z,13.60
2023-03-01T13:49:58.314Z,15.80
2023-03-01T13:52:28.138Z,11.70
2023-03-01T13:54:56.680Z,16.17
2023-03-01T13:57:30.373Z,14.88
2023-03-01T13:59:57.244Z,11.90
2023-03-01T14:02:24.102Z,19.67
2023-03-01T14:04:59.544Z,16.42
2023-03-01T14:07:30.521Z,11.80
2023-03-01T14:10:06.297Z,10.60
2023-03-01T14:13:16.363Z,13.38
2023-03-01T14:16:19.523Z,12.50
2023-03-01T14:18:53.780Z,14.15
2023-03-01T14:21:20.607Z,15.25
2023-03-01T14:23:47.879Z,11.45
2023-03-01T14:26:20.926Z,13.60
2023-03-01T14:28:49.478Z,10.55
2023-03-01T14:31:52.501Z,12.82
2023-03-01T14:34:25.714Z,11.38
2023-03-01T14:36:52.514Z,13.60
2023-03-01T14:39:27.436Z,9.93
2023-03-01T14:41:54.510Z,10.45
2023-03-01T14:44:25.614Z,12.95
2023-03-01T14:46:56.999Z,13.88
2023-03-01T14:49:28.154Z,12.55
2023-03-01T14:52:36.164Z,10.35
2023-03-01T14:55:07.116Z,8.93
2023-03-01T14:57:40.298Z,10.95
2023-03-01T15:00:11.433Z,11.38
2023-03-01T15:02:40.626Z,11.15
2023-03-01T15:05:09.355Z,12.23
2023-03-01T15:07:40.948Z,11.65
2023-03-01T15:10:25.719Z,9.10
2023-03-01T15:12:54.093Z,9.40
2023-03-01T15:15:31.021Z,8.40
2023-03-01T15:18:00.828Z,11.05
2023-03-01T15:20:31.590Z,11.82
2023-03-01T15:22:59.685Z,10.52
2023-03-01T15:25:29.498Z,14.93
2023-03-01T15:27:58.974Z,10.82
2023-03-01T15:30:38.289Z,16.73
2023-03-01T15:33:33.740Z,12.40
2023-03-01T15:36:03.930Z,15.77
2023-03-01T15:38:59.034Z,13.93
2023-03-01T15:41:38.444Z,11.88
2023-03-01T15:44:27.932Z,9.93
2023-03-01T15:46:57.480Z,10.52
2023-03-01T15:49:49.603Z,8.48
2023-03-01T15:52:29.979Z,7.78
2023-03-01T15:55:06.400Z,10.40
2023-03-01T15:57:33.502Z,10.45
2023-03-01T16:00:00.340Z,7.10
2023-03-01T16:02:27.250Z,7.55
2023-03-01T16:04:54.855Z,7.07
2023-03-01T16:07:21.682Z,7.10
2023-03-01T16:09:48.467Z,7.63
2023-03-01T16:12:17.462Z,12.15
2023-03-01T16:14:44.357Z,13.77
2023-03-01T16:17:11.426Z,11.10
2023-03-01T16:19:41.382Z,13.88
2023-03-01T16:22:10.906Z,13.23
2023-03-01T16:24:37.976Z,14.55
2023-03-01T16:27:04.814Z,17.98
2023-03-01T16:29:31.703Z,15.05
2023-03-01T16:32:02.415Z,15.23
2023-03-01T16:34:29.597Z,15.00
2023-03-01T16:36:56.459Z,18.67
2023-03-01T16:39:23.479Z,18.02
2023-03-01T16:41:50.282Z,19.67
2023-03-01T16:44:17.094Z,20.75
2023-03-01T16:46:44.520Z,16.98
2023-03-01T16:49:11.334Z,19.52
2023-03-01T16:51:38.152Z,22.02
2023-03-01T16:54:05.618Z,20.55
2023-03-01T16:56:35.334Z,16.98
2023-03-01T16:59:04.601Z,18.65
2023-03-01T17:01:38.554Z,16.23
2023-03-01T17:04:06.170Z,17.33
2023-03-01T17:06:33.409Z,16.40
2023-03-01T17:09:00.576Z,11.05
2023-03-01T17:11:27.837Z,14.18
2023-03-01T17:13:54.612Z,16.13
2023-03-01T17:16:22.782Z,14.50
2023-03-01T17:18:50.179Z,16.88
2023-03-01T17:21:17.662Z,19.55
2023-03-01T17:23:46.278Z,11.73
2023-03-01T17:26:13.636Z,14.55
2023-03-01T17:28:40.866Z,18.45
2023-03-01T17:31:07.759Z,12.43
2023-03-01T17:33:34.852Z,13.82
2023-03-01T17:36:02.255Z,12.25
2023-03-01T17:41:00.847Z,11.63
2023-03-01T17:43:27.992Z,13.38
2023-03-01T17:45:55.002Z,13.43
2023-03-01T17:48:21.853Z,12.00
2023-03-01T17:50:49.492Z,16.88
2023-03-01T17:53:16.402Z,14.02
2023-03-01T17:55:44.313Z,11.77
2023-03-01T17:58:14.793Z,12.50
2023-03-01T18:00:41.842Z,12.70
2023-03-01T18:03:08.805Z,18.40
2023-03-01T18:05:38.102Z,13.77
2023-03-01T18:08:05.241Z,18.58
2023-03-01T18:10:32.962Z,13.63
2023-03-01T18:12:59.805Z,14.05
2023-03-01T18:15:27.425Z,20.77
2023-03-01T18:17:54.329Z,14.65
2023-03-01T18:20:21.540Z,13.57
2023-03-01T18:22:49.279Z,13.30
2023-03-01T18:25:16.264Z,14.45
2023-03-01T18:27:43.093Z,16.70
2023-03-01T18:30:10.780Z,14.50
2023-03-01T18:32:48.456Z,14.60
2023-03-01T18:35:15.518Z,13.93
2023-03-01T18:37:42.490Z,13.82
2023-03-01T18:40:09.850Z,14.43
2023-03-01T18:42:36.971Z,13.75
2023-03-01T18:45:06.928Z,13.30
2023-03-01T18:47:33.731Z,13.60
2023-03-01T18:50:00.583Z,14.73
2023-03-01T18:52:27.560Z,13.30
2023-03-01T18:54:54.374Z,15.65
2023-03-01T18:57:21.307Z,14.02
2023-03-01T18:59:48.292Z,12.57
2023-03-01T19:02:18.339Z,12.63
2023-03-01T19:04:45.392Z,12.73
2023-03-01T19:07:12.609Z,14.60
2023-03-01T19:09:40.141Z,12.20
2023-03-01T19:12:07.443Z,15.35
2023-03-01T19:14:34.580Z,15.65
2023-03-01T19:17:01.410Z,14.07
2023-03-01T19:19:28.289Z,12.85
2023-03-01T19:22:05.185Z,14.63
2023-03-01T19:24:32.928Z,16.00
2023-03-01T19:26:59.810Z,16.65
2023-03-01T19:29:26.763Z,14.07
2023-03-01T19:31:53.655Z,11.50
2023-03-01T19:34:22.918Z,16.40
2023-03-01T19:36:49.960Z,17.35
2023-03-01T19:39:16.961Z,12.65
2023-03-01T19:41:44.373Z,18.77
2023-03-01T19:44:12.057Z,21.52
2023-03-01T19:46:39.149Z,14.30
2023-03-01T19:49:06.791Z,19.42
2023-03-01T19:51:36.158Z,16.98
2023-03-01T19:54:04.465Z,24.05
2023-03-01T19:56:31.581Z,19.70
2023-03-01T19:59:00.673Z,21.90
2023-03-01T20:01:32.977Z,21.65
2023-03-01T20:04:01.195Z,23.13
2023-03-01T20:06:30.072Z,23.02
2023-03-01T20:08:57.434Z,20.80
2023-03-01T20:11:24.798Z,20.35
2023-03-01T20:13:51.738Z,21.58
2023-03-01T20:16:20.224Z,27.30
2023-03-01T20:18:47.313Z,31.83
2023-03-01T20:21:24.136Z,28.88
2023-03-01T20:23:51.766Z,25.08
2023-03-01T20:26:21.933Z,24.13
2023-03-01T20:28:51.531Z,22.27
2023-03-01T20:31:20.292Z,23.77
2023-03-01T20:33:47.469Z,27.73
2023-03-01T20:36:14.603Z,26.17
2023-03-01T20:38:41.486Z,25.33
2023-03-01T20:41:11.009Z,26.52
2023-03-01T20:43:38.816Z,29.05
2023-03-01T20:46:07.716Z,27.42
2023-03-01T20:48:34.910Z,38.15
2023-03-01T20:51:06.102Z,26.20
2023-03-01T20:53:33.481Z,28.48
2023-03-01T20:56:05.085Z,29.38
2023-03-01T20:58:33.863Z,31.13
2023-03-01T21:01:01.267Z,28.40
2023-03-01T21:03:28.612Z,26.85
2023-03-01T21:06:00.156Z,26.35
2023-03-01T21:08:26.924Z,27.08
2023-03-01T21:10:55.401Z,26.48
2023-03-01T21:13:23.466Z,25.45
2023-03-01T21:15:54.254Z,28.10
2023-03-01T21:18:21.340Z,22.88
2023-03-01T21:20:48.637Z,23.98
2023-03-01T21:23:15.997Z,36.28
2023-03-01T21:25:42.983Z,37.60
2023-03-01T21:28:09.867Z,34.45
2023-03-01T21:30:36.726Z,33.28
2023-03-01T21:33:06.024Z,28.33
2023-03-01T21:35:32.843Z,33.72
2023-03-01T21:37:59.620Z,31.10
2023-03-01T21:40:26.511Z,33.13
2023-03-01T21:42:53.429Z,32.42
2023-03-01T21:45:20.536Z,31.48
2023-03-01T21:47:47.808Z,30.42
2023-03-01T21:50:14.657Z,33.03
2023-03-01T21:52:44.475Z,32.45
2023-03-01T21:55:12.892Z,27.30
2023-03-01T21:57:43.709Z,27.05
2023-03-01T22:00:13.181Z,34.72
2023-03-01T22:02:40.255Z,34.65
2023-03-01T22:05:07.628Z,37.88
2023-03-01T22:07:34.586Z,41.55
2023-03-01T22:10:01.609Z,34.45
2023-03-01T22:12:29.660Z,35.95
2023-03-01T22:14:56.652Z,37.15
2023-03-01T22:17:23.509Z,32.28
2023-03-01T22:19:50.365Z,31.83
2023-03-01T22:22:17.172Z,32.42
2023-03-01T22:24:43.978Z,34.13
2023-03-01T22:27:10.886Z,32.08
2023-03-01T22:29:37.659Z,42.25
2023-03-01T22:32:04.960Z,34.50
2023-03-01T22:34:31.869Z,30.73
2023-03-01T22:36:58.723Z,32.75
2023-03-01T22:39:25.456Z,30.60
2023-03-01T22:41:55.013Z,31.33
2023-03-01T22:44:22.788Z,33.20
2023-03-01T22:46:50.181Z,35.35
2023-03-01T22:49:18.148Z,30.98
2023-03-01T22:51:47.503Z,30.52
2023-03-01T22:54:15.360Z,35.92
2023-03-01T22:56:43.212Z,29.48
2023-03-01T22:59:13.490Z,33.90
2023-03-01T23:01:42.330Z,34.22
2023-03-01T23:04:09.191Z,34.75
2023-03-01T23:06:50.107Z,34.90
2023-03-01T23:09:23.458Z,33.33
2023-03-01T23:11:51.374Z,35.33
2023-03-01T23:14:19.342Z,33.20
2023-03-01T23:16:46.175Z,35.00
2023-03-01T23:19:13.324Z,34.53
2023-03-01T23:21:44.287Z,31.42
2023-03-01T23:24:11.237Z,31.52
2023-03-01T23:26:40.347Z,28.58
2023-03-01T23:29:07.926Z,27.02
2023-03-01T23:31:35.272Z,30.42
2023-03-01T23:34:02.576Z,33.58
2023-03-01T23:36:32.293Z,24.40
2023-03-01T23:39:05.384Z,26.75
2023-03-01T23:44:05.315Z,28.10
2023-03-01T23:46:35.000Z,27.33
2023-03-01T23:49:03.217Z,30.02
2023-03-01T23:51:30.088Z,27.90
2023-03-01T23:54:00.136Z,28.30
2023-03-01T23:56:31.583Z,26.27
2023-03-01T23:59:00.955Z,24.70
